< < Back
Terminal Aerodrome Forecast


Current Version              Previous Versions:   1  2  3  4  5  6  7  8  9  

Terminal Aerodrome Forecast

164
FTUS42 KFFC 301720
TAFCSG
TAF
KCSG 301720Z 3018/0118 20007KT P6SM SCT050
      TEMPO 3019/3023 4SM -TSRA BKN035CB
     FM010100 21004KT P6SM SCT100 BKN250
     FM010800 25004KT P6SM OVC006
     FM011400 26004KT P6SM BKN025=

Latest METAR

439
SAUS70 KWBC 302200 RRX
MTRCSG
METAR KCSG 302251Z 00000KT 10SM CLR 27/22 A2995 RMK AO2 SLP138
T02720217


USA.gov is the U.S. government's official web portal to all federal, state and local government web resources and services.